Hauptseite
METAR-TAF:

METAR-TAF

Flughäfen :

Flughafen Caracas

Caracas, Venezuela

Breite: 10-36N, Länge: 066-59W, Höhe: 43 m

Beobachtung

Neuester Wetterbericht von vor 1 Stunde und 10 Minuten, um 18:00 UTC
Wind 5 kt aus Nord/Nordost
Temperatur 29°C
Luftfeuchtigkeit 74%
Luftdruck 1010 hPa
Sichtweite 10 km oder mehr
Durchbrochene Bewölkung in der Höhe von 1300 ft

METAR: SVMI 231800Z 02005KT 9999 BKN013 29/24 Q1010

Zeit: 15:10 (19:10 UTC)

Prognose

Neuester Wetterbericht von vor 3 Stunden und 10 Minuten, um 16:00 UTC
Gültige Prognose vom 23 um 18 UTC bis 24 um 18 UTC
Wind 5 kt aus West/Südwest
Sichtweite 10 km oder mehr
Leicht bewölkt in der Höhe von 1600 ft
Übergehend zu
vom 23 um 18 UTC bis 23 um 22 UTC
Wind 2 kt aus Nord
Sichtweite 10 km oder mehr
Aufgelockert bewölkt in der Höhe von 1600 ft

TAF: SVMI 231600Z 2318/2418 24005KT 9999 FEW016 TX32/18Z TN24/10Z BECMG 2318/2322 35002KT 9999 SCT016

Wetterbeobachtungen und Prognosen von mehr als 4000 Flughäfen (METAR und TAF Bericht).

Die verfügbaren Stationen werden durch gelbe und rote Markierungen auf der Karte dargestellt.

Führen Sie die Maus auf sie, um den Namen der Station zu sehen.

Darauf klicken, um die Beobachtung von Wetterbeobachtungen und Prognosen zu sehen.

Um die Karte zu ändern : klicken Sie auf den grünen Tasten mit einem schwarzen Kreuz Zum Vergrößern, auf den grünen Button mit einem Gedankenstrich zu verkleinern, oder auf die grünen Pfeile für benachbarte Karten.


METAR-TAF: